sensor_id;sensor_type;location;lat;lon;timestamp;P1;durP1;ratioP1;P2;durP2;ratioP2
55254;SDS011;41118;44.634;11.182;2023-05-07T00:02:00;8.75;;;1.85;;
55254;SDS011;41118;44.634;11.182;2023-05-07T00:04:28;5.22;;;1.35;;
55254;SDS011;41118;44.634;11.182;2023-05-07T00:07:00;5.43;;;1.73;;
55254;SDS011;41118;44.634;11.182;2023-05-07T00:09:27;4.80;;;1.98;;
55254;SDS011;41118;44.634;11.182;2023-05-07T00:11:53;8.82;;;1.65;;
55254;SDS011;41118;44.634;11.182;2023-05-07T00:14:20;3.88;;;0.95;;
55254;SDS011;41118;44.634;11.182;2023-05-07T00:16:46;8.20;;;1.73;;
55254;SDS011;41118;44.634;11.182;2023-05-07T00:19:12;6.47;;;1.50;;
55254;SDS011;41118;44.634;11.182;2023-05-07T00:21:39;6.18;;;1.90;;
55254;SDS011;41118;44.634;11.182;2023-05-07T00:24:05;5.60;;;1.63;;
55254;SDS011;41118;44.634;11.182;2023-05-07T00:26:31;4.85;;;1.80;;
55254;SDS011;41118;44.634;11.182;2023-05-07T00:28:58;7.75;;;1.67;;
55254;SDS011;41118;44.634;11.182;2023-05-07T00:31:24;6.28;;;1.58;;
55254;SDS011;41118;44.634;11.182;2023-05-07T00:33:50;5.20;;;1.10;;
55254;SDS011;41118;44.634;11.182;2023-05-07T00:36:16;4.22;;;1.15;;
55254;SDS011;41118;44.634;11.182;2023-05-07T00:38:42;8.95;;;2.50;;
55254;SDS011;41118;44.634;11.182;2023-05-07T00:41:09;5.65;;;1.88;;
55254;SDS011;41118;44.634;11.182;2023-05-07T00:43:35;8.73;;;2.05;;
55254;SDS011;41118;44.634;11.182;2023-05-07T00:46:01;7.95;;;1.35;;
55254;SDS011;41118;44.634;11.182;2023-05-07T00:48:28;8.40;;;1.83;;
55254;SDS011;41118;44.634;11.182;2023-05-07T00:50:54;5.43;;;1.42;;
55254;SDS011;41118;44.634;11.182;2023-05-07T00:53:20;5.93;;;2.05;;
55254;SDS011;41118;44.634;11.182;2023-05-07T00:55:47;6.07;;;1.90;;
55254;SDS011;41118;44.634;11.182;2023-05-07T00:58:13;9.27;;;2.65;;
55254;SDS011;41118;44.634;11.182;2023-05-07T01:00:40;4.40;;;2.10;;
55254;SDS011;41118;44.634;11.182;2023-05-07T01:03:07;6.57;;;2.05;;
55254;SDS011;41118;44.634;11.182;2023-05-07T01:05:33;8.30;;;2.10;;
55254;SDS011;41118;44.634;11.182;2023-05-07T01:08:00;4.97;;;1.48;;
55254;SDS011;41118;44.634;11.182;2023-05-07T01:10:27;5.68;;;2.22;;
55254;SDS011;41118;44.634;11.182;2023-05-07T01:12:55;6.43;;;1.73;;
55254;SDS011;41118;44.634;11.182;2023-05-07T01:15:22;7.82;;;1.88;;
55254;SDS011;41118;44.634;11.182;2023-05-07T01:17:48;6.75;;;2.28;;
55254;SDS011;41118;44.634;11.182;2023-05-07T01:20:14;12.77;;;2.05;;
55254;SDS011;41118;44.634;11.182;2023-05-07T01:22:41;5.68;;;1.42;;
55254;SDS011;41118;44.634;11.182;2023-05-07T01:25:09;5.57;;;1.73;;
55254;SDS011;41118;44.634;11.182;2023-05-07T01:27:35;8.75;;;2.90;;
55254;SDS011;41118;44.634;11.182;2023-05-07T01:30:04;4.45;;;1.63;;
55254;SDS011;41118;44.634;11.182;2023-05-07T01:34:57;5.00;;;2.47;;
55254;SDS011;41118;44.634;11.182;2023-05-07T01:37:23;5.25;;;1.50;;
55254;SDS011;41118;44.634;11.182;2023-05-07T01:39:49;5.80;;;2.13;;
55254;SDS011;41118;44.634;11.182;2023-05-07T01:42:15;6.00;;;1.80;;
55254;SDS011;41118;44.634;11.182;2023-05-07T01:44:42;9.38;;;2.13;;
55254;SDS011;41118;44.634;11.182;2023-05-07T01:47:09;4.55;;;1.85;;
55254;SDS011;41118;44.634;11.182;2023-05-07T01:49:35;6.10;;;1.83;;
55254;SDS011;41118;44.634;11.182;2023-05-07T01:52:02;5.15;;;1.75;;
55254;SDS011;41118;44.634;11.182;2023-05-07T01:54:28;3.90;;;1.15;;
55254;SDS011;41118;44.634;11.182;2023-05-07T01:56:58;3.65;;;1.27;;
55254;SDS011;41118;44.634;11.182;2023-05-07T01:59:25;5.78;;;1.40;;
55254;SDS011;41118;44.634;11.182;2023-05-07T02:01:51;7.47;;;1.42;;
55254;SDS011;41118;44.634;11.182;2023-05-07T02:04:17;3.33;;;1.10;;
55254;SDS011;41118;44.634;11.182;2023-05-07T02:06:43;7.22;;;1.85;;
55254;SDS011;41118;44.634;11.182;2023-05-07T02:09:10;4.90;;;1.40;;
55254;SDS011;41118;44.634;11.182;2023-05-07T02:11:36;5.43;;;1.60;;
55254;SDS011;41118;44.634;11.182;2023-05-07T02:14:03;3.65;;;1.55;;
55254;SDS011;41118;44.634;11.182;2023-05-07T02:16:29;6.03;;;1.80;;
55254;SDS011;41118;44.634;11.182;2023-05-07T02:18:55;5.07;;;1.20;;
55254;SDS011;41118;44.634;11.182;2023-05-07T02:21:21;3.25;;;0.80;;
55254;SDS011;41118;44.634;11.182;2023-05-07T02:23:47;4.75;;;0.73;;
55254;SDS011;41118;44.634;11.182;2023-05-07T02:26:14;2.92;;;0.90;;
55254;SDS011;41118;44.634;11.182;2023-05-07T02:28:40;4.90;;;1.75;;
55254;SDS011;41118;44.634;11.182;2023-05-07T02:31:06;4.97;;;1.10;;
55254;SDS011;41118;44.634;11.182;2023-05-07T02:33:32;3.00;;;1.23;;
55254;SDS011;41118;44.634;11.182;2023-05-07T02:36:09;3.72;;;0.90;;
55254;SDS011;41118;44.634;11.182;2023-05-07T02:38:35;3.38;;;0.90;;
55254;SDS011;41118;44.634;11.182;2023-05-07T02:41:01;4.97;;;1.08;;
55254;SDS011;41118;44.634;11.182;2023-05-07T02:43:27;4.25;;;1.08;;
55254;SDS011;41118;44.634;11.182;2023-05-07T02:46:00;3.40;;;1.45;;
55254;SDS011;41118;44.634;11.182;2023-05-07T02:48:26;5.60;;;2.10;;
55254;SDS011;41118;44.634;11.182;2023-05-07T02:50:53;4.88;;;1.77;;
55254;SDS011;41118;44.634;11.182;2023-05-07T02:53:19;5.65;;;1.15;;
55254;SDS011;41118;44.634;11.182;2023-05-07T02:55:45;4.25;;;0.80;;
55254;SDS011;41118;44.634;11.182;2023-05-07T02:58:12;3.38;;;1.10;;
55254;SDS011;41118;44.634;11.182;2023-05-07T03:00:38;6.80;;;2.55;;
55254;SDS011;41118;44.634;11.182;2023-05-07T03:03:05;6.22;;;2.00;;
55254;SDS011;41118;44.634;11.182;2023-05-07T03:05:31;6.30;;;1.73;;
55254;SDS011;41118;44.634;11.182;2023-05-07T03:07:57;4.57;;;2.10;;
55254;SDS011;41118;44.634;11.182;2023-05-07T03:10:23;7.25;;;2.25;;
55254;SDS011;41118;44.634;11.182;2023-05-07T03:12:49;6.03;;;2.05;;
55254;SDS011;41118;44.634;11.182;2023-05-07T03:15:15;3.85;;;1.20;;
55254;SDS011;41118;44.634;11.182;2023-05-07T03:17:41;6.32;;;2.00;;
55254;SDS011;41118;44.634;11.182;2023-05-07T03:20:07;5.95;;;1.52;;
55254;SDS011;41118;44.634;11.182;2023-05-07T03:22:34;4.72;;;2.47;;
55254;SDS011;41118;44.634;11.182;2023-05-07T03:25:00;7.97;;;2.63;;
55254;SDS011;41118;44.634;11.182;2023-05-07T03:27:26;8.73;;;2.03;;
55254;SDS011;41118;44.634;11.182;2023-05-07T03:29:53;4.45;;;1.67;;
55254;SDS011;41118;44.634;11.182;2023-05-07T03:32:19;6.93;;;2.17;;
55254;SDS011;41118;44.634;11.182;2023-05-07T03:34:46;4.40;;;1.52;;
55254;SDS011;41118;44.634;11.182;2023-05-07T03:37:12;5.35;;;1.55;;
55254;SDS011;41118;44.634;11.182;2023-05-07T03:39:38;9.30;;;2.58;;
55254;SDS011;41118;44.634;11.182;2023-05-07T03:42:04;6.93;;;2.72;;
55254;SDS011;41118;44.634;11.182;2023-05-07T03:44:30;5.22;;;1.80;;
55254;SDS011;41118;44.634;11.182;2023-05-07T03:46:56;7.63;;;1.90;;
55254;SDS011;41118;44.634;11.182;2023-05-07T03:49:22;7.22;;;2.17;;
55254;SDS011;41118;44.634;11.182;2023-05-07T03:51:48;5.55;;;1.33;;
55254;SDS011;41118;44.634;11.182;2023-05-07T03:54:14;7.85;;;1.63;;
55254;SDS011;41118;44.634;11.182;2023-05-07T03:56:40;6.25;;;2.15;;
55254;SDS011;41118;44.634;11.182;2023-05-07T03:59:07;4.57;;;0.90;;
55254;SDS011;41118;44.634;11.182;2023-05-07T04:01:33;5.80;;;2.28;;
55254;SDS011;41118;44.634;11.182;2023-05-07T04:03:59;5.00;;;1.27;;
55254;SDS011;41118;44.634;11.182;2023-05-07T04:06:26;6.32;;;1.55;;
55254;SDS011;41118;44.634;11.182;2023-05-07T04:08:52;13.13;;;2.75;;
55254;SDS011;41118;44.634;11.182;2023-05-07T04:11:19;4.45;;;1.50;;
55254;SDS011;41118;44.634;11.182;2023-05-07T04:13:45;3.13;;;1.70;;
55254;SDS011;41118;44.634;11.182;2023-05-07T04:16:11;3.63;;;1.30;;
55254;SDS011;41118;44.634;11.182;2023-05-07T04:18:38;7.07;;;1.80;;
55254;SDS011;41118;44.634;11.182;2023-05-07T04:21:04;7.32;;;1.23;;
55254;SDS011;41118;44.634;11.182;2023-05-07T04:23:30;6.47;;;2.20;;
55254;SDS011;41118;44.634;11.182;2023-05-07T04:25:56;8.57;;;2.95;;
55254;SDS011;41118;44.634;11.182;2023-05-07T04:28:23;5.60;;;1.40;;
55254;SDS011;41118;44.634;11.182;2023-05-07T04:30:50;6.30;;;1.75;;
55254;SDS011;41118;44.634;11.182;2023-05-07T04:33:16;5.22;;;1.65;;
55254;SDS011;41118;44.634;11.182;2023-05-07T04:35:43;7.68;;;2.42;;
55254;SDS011;41118;44.634;11.182;2023-05-07T04:38:09;5.80;;;2.38;;
55254;SDS011;41118;44.634;11.182;2023-05-07T04:40:35;4.57;;;2.25;;
55254;SDS011;41118;44.634;11.182;2023-05-07T04:43:02;7.50;;;2.17;;
55254;SDS011;41118;44.634;11.182;2023-05-07T04:45:28;4.70;;;1.95;;
55254;SDS011;41118;44.634;11.182;2023-05-07T04:47:54;5.53;;;2.22;;
55254;SDS011;41118;44.634;11.182;2023-05-07T04:50:20;8.57;;;2.35;;
55254;SDS011;41118;44.634;11.182;2023-05-07T04:52:48;4.97;;;1.73;;
55254;SDS011;41118;44.634;11.182;2023-05-07T04:55:15;6.00;;;2.45;;
55254;SDS011;41118;44.634;11.182;2023-05-07T04:57:41;7.13;;;2.05;;
55254;SDS011;41118;44.634;11.182;2023-05-07T05:00:07;6.38;;;2.50;;
55254;SDS011;41118;44.634;11.182;2023-05-07T05:02:34;6.95;;;2.28;;
55254;SDS011;41118;44.634;11.182;2023-05-07T05:05:00;8.85;;;1.98;;
55254;SDS011;41118;44.634;11.182;2023-05-07T05:07:27;8.32;;;2.20;;
55254;SDS011;41118;44.634;11.182;2023-05-07T05:09:53;8.23;;;2.70;;
55254;SDS011;41118;44.634;11.182;2023-05-07T05:12:20;6.47;;;2.80;;
55254;SDS011;41118;44.634;11.182;2023-05-07T05:14:46;8.38;;;3.63;;
55254;SDS011;41118;44.634;11.182;2023-05-07T05:17:12;5.38;;;2.17;;
55254;SDS011;41118;44.634;11.182;2023-05-07T05:19:38;7.32;;;3.35;;
55254;SDS011;41118;44.634;11.182;2023-05-07T05:22:04;12.48;;;3.40;;
55254;SDS011;41118;44.634;11.182;2023-05-07T05:24:31;5.80;;;2.40;;
55254;SDS011;41118;44.634;11.182;2023-05-07T05:26:57;7.18;;;2.33;;
55254;SDS011;41118;44.634;11.182;2023-05-07T05:29:26;11.75;;;3.38;;
55254;SDS011;41118;44.634;11.182;2023-05-07T05:31:52;6.65;;;2.72;;
55254;SDS011;41118;44.634;11.182;2023-05-07T05:34:18;6.50;;;2.47;;
55254;SDS011;41118;44.634;11.182;2023-05-07T05:36:47;7.40;;;3.80;;
55254;SDS011;41118;44.634;11.182;2023-05-07T05:39:13;11.23;;;4.05;;
55254;SDS011;41118;44.634;11.182;2023-05-07T05:41:40;6.35;;;3.20;;
55254;SDS011;41118;44.634;11.182;2023-05-07T05:44:06;5.57;;;2.17;;
55254;SDS011;41118;44.634;11.182;2023-05-07T05:46:33;6.90;;;3.08;;
55254;SDS011;41118;44.634;11.182;2023-05-07T05:48:59;5.50;;;2.78;;
55254;SDS011;41118;44.634;11.182;2023-05-07T05:51:25;7.00;;;3.60;;
55254;SDS011;41118;44.634;11.182;2023-05-07T05:53:51;9.27;;;3.22;;
55254;SDS011;41118;44.634;11.182;2023-05-07T05:56:18;8.65;;;3.35;;
55254;SDS011;41118;44.634;11.182;2023-05-07T05:58:44;10.40;;;3.92;;
55254;SDS011;41118;44.634;11.182;2023-05-07T06:01:10;8.50;;;3.35;;
55254;SDS011;41118;44.634;11.182;2023-05-07T06:03:37;10.50;;;3.22;;
55254;SDS011;41118;44.634;11.182;2023-05-07T06:06:03;7.10;;;3.42;;
55254;SDS011;41118;44.634;11.182;2023-05-07T06:08:29;9.55;;;2.75;;
55254;SDS011;41118;44.634;11.182;2023-05-07T06:10:56;12.80;;;4.43;;
55254;SDS011;41118;44.634;11.182;2023-05-07T06:13:22;11.10;;;4.70;;
55254;SDS011;41118;44.634;11.182;2023-05-07T06:15:49;10.38;;;4.40;;
55254;SDS011;41118;44.634;11.182;2023-05-07T06:18:15;9.98;;;3.55;;
55254;SDS011;41118;44.634;11.182;2023-05-07T06:20:41;10.95;;;5.35;;
55254;SDS011;41118;44.634;11.182;2023-05-07T06:23:08;9.68;;;3.75;;
55254;SDS011;41118;44.634;11.182;2023-05-07T06:25:34;10.48;;;3.35;;
55254;SDS011;41118;44.634;11.182;2023-05-07T06:28:00;7.45;;;2.78;;
55254;SDS011;41118;44.634;11.182;2023-05-07T06:30:26;8.07;;;3.72;;
55254;SDS011;41118;44.634;11.182;2023-05-07T06:32:52;10.07;;;4.00;;
55254;SDS011;41118;44.634;11.182;2023-05-07T06:35:18;7.18;;;2.88;;
55254;SDS011;41118;44.634;11.182;2023-05-07T06:37:45;12.55;;;4.35;;
55254;SDS011;41118;44.634;11.182;2023-05-07T06:40:11;10.10;;;4.22;;
55254;SDS011;41118;44.634;11.182;2023-05-07T06:42:38;10.45;;;4.13;;
55254;SDS011;41118;44.634;11.182;2023-05-07T06:45:04;10.38;;;4.38;;
55254;SDS011;41118;44.634;11.182;2023-05-07T06:47:30;12.18;;;2.97;;
55254;SDS011;41118;44.634;11.182;2023-05-07T06:49:57;10.50;;;3.60;;
55254;SDS011;41118;44.634;11.182;2023-05-07T06:52:23;9.55;;;3.45;;
55254;SDS011;41118;44.634;11.182;2023-05-07T06:54:49;10.43;;;2.78;;
55254;SDS011;41118;44.634;11.182;2023-05-07T06:57:15;7.50;;;2.85;;
55254;SDS011;41118;44.634;11.182;2023-05-07T06:59:41;4.70;;;2.10;;
55254;SDS011;41118;44.634;11.182;2023-05-07T07:02:08;9.32;;;4.03;;
55254;SDS011;41118;44.634;11.182;2023-05-07T07:04:34;10.52;;;3.17;;
55254;SDS011;41118;44.634;11.182;2023-05-07T07:07:00;14.40;;;2.60;;
55254;SDS011;41118;44.634;11.182;2023-05-07T07:09:26;6.25;;;2.08;;
55254;SDS011;41118;44.634;11.182;2023-05-07T07:11:52;8.38;;;3.15;;
55254;SDS011;41118;44.634;11.182;2023-05-07T07:14:18;7.95;;;4.05;;
55254;SDS011;41118;44.634;11.182;2023-05-07T07:16:45;7.95;;;2.75;;
55254;SDS011;41118;44.634;11.182;2023-05-07T07:19:11;3.50;;;1.15;;
55254;SDS011;41118;44.634;11.182;2023-05-07T07:21:40;8.02;;;1.73;;
55254;SDS011;41118;44.634;11.182;2023-05-07T07:24:06;8.13;;;2.17;;
55254;SDS011;41118;44.634;11.182;2023-05-07T07:26:33;7.50;;;2.25;;
55254;SDS011;41118;44.634;11.182;2023-05-07T07:28:59;8.75;;;2.45;;
55254;SDS011;41118;44.634;11.182;2023-05-07T07:31:25;7.47;;;2.53;;
55254;SDS011;41118;44.634;11.182;2023-05-07T07:33:51;11.18;;;2.50;;
55254;SDS011;41118;44.634;11.182;2023-05-07T07:36:18;11.95;;;3.83;;
55254;SDS011;41118;44.634;11.182;2023-05-07T07:38:44;5.32;;;2.67;;
55254;SDS011;41118;44.634;11.182;2023-05-07T07:41:10;8.00;;;2.42;;
55254;SDS011;41118;44.634;11.182;2023-05-07T07:43:36;6.88;;;2.50;;
55254;SDS011;41118;44.634;11.182;2023-05-07T07:46:02;14.02;;;3.17;;
55254;SDS011;41118;44.634;11.182;2023-05-07T07:48:28;8.02;;;2.88;;
55254;SDS011;41118;44.634;11.182;2023-05-07T07:50:55;9.85;;;2.58;;
55254;SDS011;41118;44.634;11.182;2023-05-07T07:53:21;8.80;;;2.13;;
55254;SDS011;41118;44.634;11.182;2023-05-07T07:55:47;9.68;;;1.90;;
55254;SDS011;41118;44.634;11.182;2023-05-07T07:58:13;9.10;;;2.22;;
55254;SDS011;41118;44.634;11.182;2023-05-07T08:00:39;12.55;;;3.20;;
55254;SDS011;41118;44.634;11.182;2023-05-07T08:03:05;7.07;;;3.13;;
55254;SDS011;41118;44.634;11.182;2023-05-07T08:05:32;5.03;;;2.33;;
55254;SDS011;41118;44.634;11.182;2023-05-07T08:07:58;3.50;;;1.25;;
55254;SDS011;41118;44.634;11.182;2023-05-07T08:10:24;5.53;;;1.48;;
55254;SDS011;41118;44.634;11.182;2023-05-07T08:12:51;7.28;;;2.35;;
55254;SDS011;41118;44.634;11.182;2023-05-07T08:15:17;4.30;;;1.70;;
55254;SDS011;41118;44.634;11.182;2023-05-07T08:17:43;4.00;;;1.92;;
55254;SDS011;41118;44.634;11.182;2023-05-07T08:20:09;5.72;;;1.38;;
55254;SDS011;41118;44.634;11.182;2023-05-07T08:22:36;3.55;;;0.70;;
55254;SDS011;41118;44.634;11.182;2023-05-07T08:25:02;5.30;;;0.95;;
55254;SDS011;41118;44.634;11.182;2023-05-07T08:27:29;3.80;;;1.42;;
55254;SDS011;41118;44.634;11.182;2023-05-07T08:29:55;3.88;;;1.02;;
55254;SDS011;41118;44.634;11.182;2023-05-07T08:32:21;3.25;;;0.98;;
55254;SDS011;41118;44.634;11.182;2023-05-07T08:34:47;5.97;;;2.25;;
55254;SDS011;41118;44.634;11.182;2023-05-07T08:37:14;2.78;;;0.80;;
55254;SDS011;41118;44.634;11.182;2023-05-07T08:39:40;3.95;;;0.50;;
55254;SDS011;41118;44.634;11.182;2023-05-07T08:42:06;3.90;;;0.88;;
55254;SDS011;41118;44.634;11.182;2023-05-07T08:44:34;3.92;;;0.50;;
55254;SDS011;41118;44.634;11.182;2023-05-07T08:47:00;5.35;;;1.70;;
55254;SDS011;41118;44.634;11.182;2023-05-07T08:49:27;5.18;;;0.60;;
55254;SDS011;41118;44.634;11.182;2023-05-07T08:51:54;2.70;;;0.55;;
55254;SDS011;41118;44.634;11.182;2023-05-07T08:54:21;3.20;;;0.65;;
55254;SDS011;41118;44.634;11.182;2023-05-07T08:56:47;2.25;;;0.55;;
55254;SDS011;41118;44.634;11.182;2023-05-07T08:59:13;3.78;;;0.60;;
55254;SDS011;41118;44.634;11.182;2023-05-07T09:01:39;2.85;;;0.60;;
55254;SDS011;41118;44.634;11.182;2023-05-07T09:04:05;1.92;;;0.50;;
55254;SDS011;41118;44.634;11.182;2023-05-07T09:06:32;3.90;;;0.95;;
55254;SDS011;41118;44.634;11.182;2023-05-07T09:08:58;2.08;;;0.50;;
55254;SDS011;41118;44.634;11.182;2023-05-07T09:11:26;3.35;;;0.75;;
55254;SDS011;41118;44.634;11.182;2023-05-07T09:13:56;6.82;;;0.63;;
55254;SDS011;41118;44.634;11.182;2023-05-07T09:16:25;4.90;;;0.60;;
55254;SDS011;41118;44.634;11.182;2023-05-07T09:18:51;3.33;;;0.88;;
55254;SDS011;41118;44.634;11.182;2023-05-07T09:21:18;1.52;;;0.30;;
55254;SDS011;41118;44.634;11.182;2023-05-07T09:23:45;1.38;;;0.40;;
55254;SDS011;41118;44.634;11.182;2023-05-07T09:26:11;2.95;;;0.47;;
55254;SDS011;41118;44.634;11.182;2023-05-07T09:28:38;1.70;;;0.38;;
55254;SDS011;41118;44.634;11.182;2023-05-07T09:31:05;3.03;;;0.35;;
55254;SDS011;41118;44.634;11.182;2023-05-07T09:33:31;1.15;;;0.35;;
55254;SDS011;41118;44.634;11.182;2023-05-07T09:35:58;1.23;;;0.30;;
55254;SDS011;41118;44.634;11.182;2023-05-07T09:38:24;1.88;;;0.30;;
55254;SDS011;41118;44.634;11.182;2023-05-07T09:41:03;1.50;;;0.40;;
55254;SDS011;41118;44.634;11.182;2023-05-07T09:43:33;2.65;;;0.20;;
55254;SDS011;41118;44.634;11.182;2023-05-07T09:46:02;2.88;;;0.20;;
55254;SDS011;41118;44.634;11.182;2023-05-07T09:48:28;1.23;;;0.20;;
55254;SDS011;41118;44.634;11.182;2023-05-07T09:50:55;1.45;;;0.20;;
55254;SDS011;41118;44.634;11.182;2023-05-07T09:53:23;0.90;;;0.30;;
55254;SDS011;41118;44.634;11.182;2023-05-07T09:55:50;0.55;;;0.20;;
55254;SDS011;41118;44.634;11.182;2023-05-07T09:58:17;2.22;;;0.20;;
55254;SDS011;41118;44.634;11.182;2023-05-07T10:00:44;1.02;;;0.20;;
55254;SDS011;41118;44.634;11.182;2023-05-07T10:03:11;2.17;;;0.30;;
55254;SDS011;41118;44.634;11.182;2023-05-07T10:05:39;0.50;;;0.10;;
55254;SDS011;41118;44.634;11.182;2023-05-07T10:08:05;0.40;;;0.10;;
55254;SDS011;41118;44.634;11.182;2023-05-07T10:10:32;0.77;;;0.20;;
55254;SDS011;41118;44.634;11.182;2023-05-07T10:12:59;0.90;;;0.20;;
55254;SDS011;41118;44.634;11.182;2023-05-07T10:15:26;0.70;;;0.20;;
55254;SDS011;41118;44.634;11.182;2023-05-07T10:17:52;0.65;;;0.17;;
55254;SDS011;41118;44.634;11.182;2023-05-07T10:20:19;0.57;;;0.15;;
55254;SDS011;41118;44.634;11.182;2023-05-07T10:22:47;1.15;;;0.20;;
55254;SDS011;41118;44.634;11.182;2023-05-07T10:25:18;0.80;;;0.22;;
55254;SDS011;41118;44.634;11.182;2023-05-07T10:27:46;4.20;;;0.30;;
55254;SDS011;41118;44.634;11.182;2023-05-07T10:30:21;1.17;;;0.20;;
55254;SDS011;41118;44.634;11.182;2023-05-07T10:32:49;3.17;;;0.20;;
55254;SDS011;41118;44.634;11.182;2023-05-07T10:35:20;1.58;;;0.17;;
55254;SDS011;41118;44.634;11.182;2023-05-07T10:37:47;0.77;;;0.20;;
55254;SDS011;41118;44.634;11.182;2023-05-07T10:40:14;0.90;;;0.20;;
55254;SDS011;41118;44.634;11.182;2023-05-07T10:42:59;3.33;;;0.20;;
55254;SDS011;41118;44.634;11.182;2023-05-07T10:45:26;0.55;;;0.20;;
55254;SDS011;41118;44.634;11.182;2023-05-07T10:48:12;1.50;;;0.20;;
55254;SDS011;41118;44.634;11.182;2023-05-07T10:50:39;0.98;;;0.22;;
55254;SDS011;41118;44.634;11.182;2023-05-07T10:55:43;1.88;;;0.20;;
55254;SDS011;41118;44.634;11.182;2023-05-07T11:00:48;0.90;;;0.20;;
55254;SDS011;41118;44.634;11.182;2023-05-07T11:03:14;2.10;;;0.25;;
55254;SDS011;41118;44.634;11.182;2023-05-07T11:05:41;0.82;;;0.20;;
55254;SDS011;41118;44.634;11.182;2023-05-07T11:08:08;2.83;;;0.20;;
55254;SDS011;41118;44.634;11.182;2023-05-07T11:10:50;1.05;;;0.10;;
55254;SDS011;41118;44.634;11.182;2023-05-07T11:13:17;1.98;;;0.20;;
55254;SDS011;41118;44.634;11.182;2023-05-07T11:15:47;1.30;;;0.20;;
55254;SDS011;41118;44.634;11.182;2023-05-07T11:18:16;1.80;;;0.20;;
55254;SDS011;41118;44.634;11.182;2023-05-07T11:25:58;1.30;;;0.20;;
55254;SDS011;41118;44.634;11.182;2023-05-07T11:28:25;2.05;;;0.30;;
55254;SDS011;41118;44.634;11.182;2023-05-07T11:30:52;0.73;;;0.17;;
55254;SDS011;41118;44.634;11.182;2023-05-07T11:33:18;0.70;;;0.20;;
55254;SDS011;41118;44.634;11.182;2023-05-07T11:35:44;0.68;;;0.20;;
55254;SDS011;41118;44.634;11.182;2023-05-07T11:38:12;0.80;;;0.20;;
55254;SDS011;41118;44.634;11.182;2023-05-07T11:40:59;4.45;;;0.20;;
55254;SDS011;41118;44.634;11.182;2023-05-07T11:43:26;0.63;;;0.20;;
55254;SDS011;41118;44.634;11.182;2023-05-07T11:45:52;3.20;;;0.20;;
55254;SDS011;41118;44.634;11.182;2023-05-07T11:48:19;0.50;;;0.13;;
55254;SDS011;41118;44.634;11.182;2023-05-07T11:50:52;0.70;;;0.15;;
55254;SDS011;41118;44.634;11.182;2023-05-07T11:53:24;0.45;;;0.15;;
55254;SDS011;41118;44.634;11.182;2023-05-07T11:55:57;1.95;;;0.17;;
55254;SDS011;41118;44.634;11.182;2023-05-07T11:58:24;0.93;;;0.10;;
55254;SDS011;41118;44.634;11.182;2023-05-07T12:00:51;0.85;;;0.10;;
55254;SDS011;41118;44.634;11.182;2023-05-07T12:03:18;0.57;;;0.13;;
55254;SDS011;41118;44.634;11.182;2023-05-07T12:05:44;0.80;;;0.20;;
55254;SDS011;41118;44.634;11.182;2023-05-07T12:08:14;1.58;;;0.20;;
55254;SDS011;41118;44.634;11.182;2023-05-07T12:10:41;0.75;;;0.20;;
55254;SDS011;41118;44.634;11.182;2023-05-07T12:13:20;0.70;;;0.13;;
55254;SDS011;41118;44.634;11.182;2023-05-07T12:15:50;0.77;;;0.20;;
55254;SDS011;41118;44.634;11.182;2023-05-07T12:18:16;0.47;;;0.10;;
55254;SDS011;41118;44.634;11.182;2023-05-07T12:20:42;0.98;;;0.20;;
55254;SDS011;41118;44.634;11.182;2023-05-07T12:23:08;0.90;;;0.20;;
55254;SDS011;41118;44.634;11.182;2023-05-07T12:25:35;0.65;;;0.10;;
55254;SDS011;41118;44.634;11.182;2023-05-07T12:28:02;1.13;;;0.30;;
55254;SDS011;41118;44.634;11.182;2023-05-07T12:30:30;2.83;;;0.20;;
55254;SDS011;41118;44.634;11.182;2023-05-07T12:32:57;0.60;;;0.10;;
55254;SDS011;41118;44.634;11.182;2023-05-07T12:35:27;0.50;;;0.10;;
55254;SDS011;41118;44.634;11.182;2023-05-07T12:37:59;0.68;;;0.20;;
55254;SDS011;41118;44.634;11.182;2023-05-07T12:40:47;0.60;;;0.20;;
55254;SDS011;41118;44.634;11.182;2023-05-07T12:45:46;0.95;;;0.20;;
55254;SDS011;41118;44.634;11.182;2023-05-07T12:48:12;0.90;;;0.20;;
55254;SDS011;41118;44.634;11.182;2023-05-07T12:50:38;0.70;;;0.20;;
55254;SDS011;41118;44.634;11.182;2023-05-07T12:53:05;0.70;;;0.20;;
55254;SDS011;41118;44.634;11.182;2023-05-07T12:55:34;0.65;;;0.20;;
55254;SDS011;41118;44.634;11.182;2023-05-07T12:58:06;2.03;;;0.25;;
55254;SDS011;41118;44.634;11.182;2023-05-07T13:00:38;2.03;;;0.20;;
55254;SDS011;41118;44.634;11.182;2023-05-07T13:03:04;0.85;;;0.20;;
55254;SDS011;41118;44.634;11.182;2023-05-07T13:05:31;1.40;;;0.20;;
55254;SDS011;41118;44.634;11.182;2023-05-07T13:07:57;1.00;;;0.20;;
55254;SDS011;41118;44.634;11.182;2023-05-07T13:10:24;0.50;;;0.15;;
55254;SDS011;41118;44.634;11.182;2023-05-07T13:12:50;0.60;;;0.15;;
55254;SDS011;41118;44.634;11.182;2023-05-07T13:15:17;0.88;;;0.10;;
55254;SDS011;41118;44.634;11.182;2023-05-07T13:17:43;0.70;;;0.20;;
55254;SDS011;41118;44.634;11.182;2023-05-07T13:20:10;1.10;;;0.20;;
55254;SDS011;41118;44.634;11.182;2023-05-07T13:22:37;0.43;;;0.10;;
55254;SDS011;41118;44.634;11.182;2023-05-07T13:25:03;0.60;;;0.20;;
55254;SDS011;41118;44.634;11.182;2023-05-07T13:27:30;0.57;;;0.17;;
55254;SDS011;41118;44.634;11.182;2023-05-07T13:29:56;0.50;;;0.20;;
55254;SDS011;41118;44.634;11.182;2023-05-07T13:32:24;3.72;;;0.20;;
55254;SDS011;41118;44.634;11.182;2023-05-07T13:34:50;0.57;;;0.10;;
55254;SDS011;41118;44.634;11.182;2023-05-07T13:37:16;0.70;;;0.20;;
55254;SDS011;41118;44.634;11.182;2023-05-07T13:39:42;0.80;;;0.10;;
55254;SDS011;41118;44.634;11.182;2023-05-07T13:42:08;3.55;;;0.20;;
55254;SDS011;41118;44.634;11.182;2023-05-07T13:44:34;1.35;;;0.20;;
55254;SDS011;41118;44.634;11.182;2023-05-07T13:47:00;0.80;;;0.20;;
55254;SDS011;41118;44.634;11.182;2023-05-07T13:49:26;0.60;;;0.20;;
55254;SDS011;41118;44.634;11.182;2023-05-07T13:51:52;8.73;;;0.20;;
55254;SDS011;41118;44.634;11.182;2023-05-07T13:54:19;0.98;;;0.20;;
55254;SDS011;41118;44.634;11.182;2023-05-07T13:56:45;0.60;;;0.10;;
55254;SDS011;41118;44.634;11.182;2023-05-07T13:59:12;0.95;;;0.20;;
55254;SDS011;41118;44.634;11.182;2023-05-07T14:01:39;0.75;;;0.20;;
55254;SDS011;41118;44.634;11.182;2023-05-07T14:04:05;0.63;;;0.20;;
55254;SDS011;41118;44.634;11.182;2023-05-07T14:06:31;0.82;;;0.20;;
55254;SDS011;41118;44.634;11.182;2023-05-07T14:08:57;1.40;;;0.17;;
55254;SDS011;41118;44.634;11.182;2023-05-07T14:11:23;3.67;;;0.30;;
55254;SDS011;41118;44.634;11.182;2023-05-07T14:13:49;1.20;;;0.20;;
55254;SDS011;41118;44.634;11.182;2023-05-07T14:16:16;1.05;;;0.20;;
55254;SDS011;41118;44.634;11.182;2023-05-07T14:18:42;1.38;;;0.20;;
55254;SDS011;41118;44.634;11.182;2023-05-07T14:21:08;1.27;;;0.20;;
55254;SDS011;41118;44.634;11.182;2023-05-07T14:23:34;0.73;;;0.20;;
55254;SDS011;41118;44.634;11.182;2023-05-07T14:26:01;2.05;;;0.28;;
55254;SDS011;41118;44.634;11.182;2023-05-07T14:28:27;1.48;;;0.20;;
55254;SDS011;41118;44.634;11.182;2023-05-07T14:30:53;0.82;;;0.20;;
55254;SDS011;41118;44.634;11.182;2023-05-07T14:33:19;0.70;;;0.17;;
55254;SDS011;41118;44.634;11.182;2023-05-07T14:35:45;1.63;;;0.10;;
55254;SDS011;41118;44.634;11.182;2023-05-07T14:38:13;6.18;;;0.30;;
55254;SDS011;41118;44.634;11.182;2023-05-07T14:40:40;1.00;;;0.20;;
55254;SDS011;41118;44.634;11.182;2023-05-07T14:43:06;1.27;;;0.20;;
55254;SDS011;41118;44.634;11.182;2023-05-07T14:45:33;1.05;;;0.20;;
55254;SDS011;41118;44.634;11.182;2023-05-07T14:47:59;4.13;;;0.20;;